Time;durP1;ratioP1;P1;durP2;ratioP2;P2;SDS_P1;SDS_P2;PMS_P1;PMS_P2;Temp;Humidity;BMP_temperature;BMP_pressure;BME280_temperature;BME280_humidity;BME280_pressure;Samples;Min_cycle;Max_cycle;Signal;HPM_P1;HPM_P2
2023/10/13 00:01:30;;;;;;;21.40;14.70;;;17.70;99.90;;;;;;4974526;28;20042;-78
2023/10/13 00:03:56;;;;;;;18.30;14.70;;;17.80;99.90;;;;;;4974468;28;20027;-76
2023/10/13 00:06:21;;;;;;;19.42;15.55;;;17.80;99.90;;;;;;4974363;28;20039;-79
2023/10/13 00:08:48;;;;;;;20.42;13.85;;;17.70;99.90;;;;;;4956668;28;20092;-78
2023/10/13 00:11:14;;;;;;;15.05;12.63;;;17.70;99.90;;;;;;4974233;28;20031;-79
2023/10/13 00:13:50;;;;;;;16.20;12.55;;;17.80;99.90;;;;;;4973829;28;20054;-77
2023/10/13 00:16:22;;;;;;;15.30;11.00;;;17.80;99.90;;;;;;4974032;28;20031;-78
2023/10/13 00:18:50;;;;;;;15.43;12.30;;;17.80;99.90;;;;;;4974311;28;20057;-79
2023/10/13 00:21:20;;;;;;;15.60;12.18;;;17.80;99.90;;;;;;4956874;28;20027;-79
2023/10/13 00:23:54;;;;;;;17.38;11.75;;;17.80;99.90;;;;;;4973971;28;20023;-78
2023/10/13 00:26:28;;;;;;;16.67;11.85;;;17.80;99.90;;;;;;4974038;28;20170;-78
2023/10/13 00:31:42;;;;;;;15.65;10.57;;;17.80;99.90;;;;;;4975149;28;20360;-77
2023/10/13 00:34:19;;;;;;;14.93;10.30;;;17.80;99.90;;;;;;4956885;28;20039;-79
2023/10/13 00:36:48;;;;;;;14.93;11.20;;;17.80;99.90;;;;;;4974188;28;20050;-78
2023/10/13 00:39:15;;;;;;;15.90;11.20;;;17.80;99.90;;;;;;4973705;28;20085;-78
2023/10/13 00:41:58;;;;;;;15.80;11.32;;;17.80;99.90;;;;;;4973970;28;20438;-78
2023/10/13 00:44:37;;;;;;;14.07;10.23;;;17.80;99.90;;;;;;4974111;28;20035;-78
2023/10/13 00:47:04;;;;;;;12.23;9.90;;;17.80;99.90;;;;;;4974145;28;20086;-79
2023/10/13 00:49:30;;;;;;;14.80;9.63;;;17.80;99.90;;;;;;4956793;28;20118;-79
2023/10/13 00:51:57;;;;;;;14.02;11.10;;;17.70;99.90;;;;;;4973905;28;20166;-78
2023/10/13 00:54:26;;;;;;;20.20;11.95;;;17.80;99.90;;;;;;4973189;28;20031;-79
2023/10/13 00:57:04;;;;;;;17.05;12.30;;;17.80;99.90;;;;;;4973892;28;20475;-79
2023/10/13 00:59:36;;;;;;;17.92;12.63;;;17.80;99.90;;;;;;4973868;28;20038;-79
2023/10/13 01:02:26;;;;;;;19.38;12.65;;;17.80;99.90;;;;;;4973848;28;20031;-79
2023/10/13 01:04:49;;;;;;;14.68;11.23;;;17.80;99.90;;;;;;4973663;28;20032;-79
2023/10/13 01:07:22;;;;;;;16.33;11.90;;;17.80;99.90;;;;;;4973451;28;20449;-79
2023/10/13 01:09:47;;;;;;;19.87;13.43;;;17.80;99.90;;;;;;4973976;28;20026;-77
2023/10/13 01:12:14;;;;;;;16.58;11.55;;;17.70;99.90;;;;;;4973868;28;20030;-78
2023/10/13 01:14:40;;;;;;;15.70;11.52;;;17.70;99.90;;;;;;4956041;28;20035;-79
2023/10/13 01:17:06;;;;;;;15.73;11.38;;;17.70;99.90;;;;;;4973458;28;20483;-78
2023/10/13 01:19:38;;;;;;;14.18;11.07;;;17.70;99.90;;;;;;4973584;28;20071;-79
2023/10/13 01:22:07;;;;;;;14.95;11.68;;;17.80;99.90;;;;;;4956148;28;20041;-80
2023/10/13 01:24:35;;;;;;;17.25;11.73;;;17.80;99.90;;;;;;4973643;28;20108;-78
2023/10/13 01:27:17;;;;;;;16.80;11.30;;;17.80;99.90;;;;;;4974510;28;20082;-80
2023/10/13 01:29:48;;;;;;;18.20;11.40;;;17.80;99.90;;;;;;4977129;28;20094;-79
2023/10/13 01:32:23;;;;;;;14.75;9.35;;;17.70;99.90;;;;;;4959720;28;20442;-78
2023/10/13 01:34:54;;;;;;;16.65;10.93;;;17.70;99.90;;;;;;4976879;28;20046;-78
2023/10/13 01:37:20;;;;;;;14.20;9.52;;;17.80;99.90;;;;;;4976843;28;20034;-77
2023/10/13 01:39:49;;;;;;;19.45;11.02;;;17.80;99.90;;;;;;4977202;28;20042;-75
2023/10/13 01:42:21;;;;;;;17.73;10.57;;;17.80;99.90;;;;;;4977105;28;20035;-78
2023/10/13 01:44:48;;;;;;;13.10;8.95;;;17.80;99.90;;;;;;4976824;28;20039;-77
2023/10/13 01:47:15;;;;;;;18.65;10.50;;;17.80;99.90;;;;;;4977029;28;20043;-79
2023/10/13 01:49:47;;;;;;;13.52;9.23;;;17.80;99.90;;;;;;4976889;28;20039;-79
2023/10/13 01:52:16;;;;;;;14.90;9.27;;;17.80;99.90;;;;;;4976747;28;20133;-79
2023/10/13 01:54:48;;;;;;;11.35;8.10;;;17.70;99.90;;;;;;4976964;28;20041;-78
2023/10/13 01:57:17;;;;;;;12.45;7.68;;;17.80;99.90;;;;;;4976450;28;20035;-78
2023/10/13 01:59:48;;;;;;;14.77;9.27;;;17.80;99.90;;;;;;4976682;28;20118;-79
2023/10/13 02:02:14;;;;;;;13.48;8.80;;;17.70;99.90;;;;;;4976724;28;20035;-79
2023/10/13 02:04:48;;;;;;;14.93;7.55;;;17.70;99.90;;;;;;4959730;28;20035;-79
2023/10/13 02:07:17;;;;;;;14.02;7.22;;;17.80;99.90;;;;;;4976758;28;20110;-77
2023/10/13 02:09:43;;;;;;;10.82;7.88;;;17.80;99.90;;;;;;4976571;28;20495;-78
2023/10/13 02:12:10;;;;;;;12.15;8.43;;;17.70;99.90;;;;;;4976169;28;20090;-77
2023/10/13 02:14:38;;;;;;;14.70;8.35;;;17.70;99.90;;;;;;4976344;28;20109;-78
2023/10/13 02:17:16;;;;;;;14.93;7.90;;;17.70;99.90;;;;;;4976472;28;20051;-78
2023/10/13 02:19:45;;;;;;;14.95;7.95;;;17.70;99.90;;;;;;4976533;28;20039;-78
2023/10/13 02:22:12;;;;;;;12.40;7.47;;;17.70;99.90;;;;;;4978024;28;20099;-79
2023/10/13 02:24:40;;;;;;;11.45;7.15;;;17.70;99.90;;;;;;4977402;28;20034;-78
2023/10/13 02:27:13;;;;;;;14.68;7.93;;;17.70;99.90;;;;;;4958956;28;20373;-79
2023/10/13 02:29:45;;;;;;;14.05;7.45;;;17.70;99.90;;;;;;4976235;28;20039;-78
2023/10/13 02:32:18;;;;;;;9.02;5.88;;;17.70;99.90;;;;;;4976116;28;20062;-79
2023/10/13 02:34:47;;;;;;;9.90;6.47;;;17.70;99.90;;;;;;4958460;28;20053;-79
2023/10/13 02:37:13;;;;;;;14.73;6.40;;;17.70;99.90;;;;;;4976064;28;20034;-78
2023/10/13 02:39:42;;;;;;;14.07;6.72;;;17.70;99.90;;;;;;4975269;28;20126;-79
2023/10/13 02:42:08;;;;;;;10.88;6.63;;;17.70;99.90;;;;;;4958515;28;20122;-79
2023/10/13 02:44:36;;;;;;;12.43;6.65;;;17.70;99.90;;;;;;4975720;28;20050;-77
2023/10/13 02:47:05;;;;;;;13.75;6.22;;;17.70;99.90;;;;;;4975906;28;20045;-79
2023/10/13 02:49:34;;;;;;;11.93;5.93;;;17.70;99.90;;;;;;4975608;28;20097;-78
2023/10/13 02:52:07;;;;;;;9.18;5.63;;;17.70;99.90;;;;;;4975772;28;20479;-78
2023/10/13 02:54:39;;;;;;;8.63;5.15;;;17.60;99.90;;;;;;4975549;28;20066;-77
2023/10/13 02:57:05;;;;;;;10.00;5.53;;;17.70;99.90;;;;;;4975681;28;20034;-78
2023/10/13 02:59:46;;;;;;;11.70;6.25;;;17.60;99.90;;;;;;4958141;28;20042;-78
2023/10/13 03:02:23;;;;;;;10.63;6.20;;;17.60;99.90;;;;;;4975812;28;20548;-77
2023/10/13 03:05:09;;;;;;;11.38;5.97;;;17.60;99.90;;;;;;4957857;28;20034;-78
2023/10/13 03:07:36;;;;;;;10.18;6.05;;;17.60;99.90;;;;;;4975544;28;20047;-78
2023/10/13 03:10:14;;;;;;;9.55;5.28;;;17.60;99.90;;;;;;4975302;28;20034;-77
2023/10/13 03:12:41;;;;;;;8.15;4.88;;;17.60;99.90;;;;;;4975088;28;20023;-78
2023/10/13 03:15:21;;;;;;;8.90;5.18;;;17.60;99.90;;;;;;4975503;28;20114;-79
2023/10/13 03:17:47;;;;;;;8.98;5.35;;;17.60;99.90;;;;;;4957448;28;20035;-79
2023/10/13 03:20:15;;;;;;;10.77;5.13;;;17.60;99.90;;;;;;4957727;28;20035;-79
2023/10/13 03:22:44;;;;;;;8.50;4.97;;;17.60;99.90;;;;;;4975252;28;20031;-77
2023/10/13 03:25:29;;;;;;;8.77;4.90;;;17.60;99.90;;;;;;4974924;28;20033;-79
2023/10/13 03:30:29;;;;;;;7.72;4.35;;;17.60;99.90;;;;;;4975176;28;20081;-78
2023/10/13 03:32:55;;;;;;;10.10;4.88;;;17.60;99.90;;;;;;4974571;28;20191;-80
2023/10/13 03:35:24;;;;;;;10.77;4.80;;;17.60;99.90;;;;;;4975006;28;20037;-78
2023/10/13 03:37:53;;;;;;;9.43;5.30;;;17.60;99.90;;;;;;4974867;28;20077;-78
2023/10/13 03:43:04;;;;;;;9.50;5.25;;;17.50;99.90;;;;;;4975070;28;20027;-79
2023/10/13 03:45:44;;;;;;;12.20;5.07;;;17.60;99.90;;;;;;4974715;28;20443;-79
2023/10/13 03:48:21;;;;;;;16.15;6.18;;;17.50;99.90;;;;;;4974251;28;20062;-79
2023/10/13 03:50:57;;;;;;;12.38;5.25;;;17.60;99.90;;;;;;4975134;28;20032;-78
2023/10/13 03:53:25;;;;;;;14.75;6.03;;;17.60;99.90;;;;;;4975001;28;20554;-78
2023/10/13 03:56:07;;;;;;;10.45;5.88;;;17.50;99.90;;;;;;4957359;28;20118;-78
2023/10/13 03:58:34;;;;;;;13.18;6.38;;;17.50;99.90;;;;;;4974565;28;20038;-77
2023/10/13 04:01:00;;;;;;;11.13;6.35;;;17.60;99.90;;;;;;4974311;28;20449;-79
2023/10/13 04:03:38;;;;;;;12.18;7.15;;;17.50;99.90;;;;;;4956983;28;20074;-78
2023/10/13 04:06:08;;;;;;;11.50;7.55;;;17.50;99.90;;;;;;4974467;28;20054;-78
2023/10/13 04:16:50;;;;;;;15.57;8.77;;;17.50;99.90;;;;;;4974307;28;20105;-79
2023/10/13 04:19:26;;;;;;;12.52;8.35;;;17.50;99.90;;;;;;4974522;28;20550;-79
2023/10/13 04:22:14;;;;;;;12.32;7.75;;;17.50;99.90;;;;;;4974331;28;20031;-79
2023/10/13 04:25:00;;;;;;;15.32;8.68;;;17.40;99.90;;;;;;4973743;28;20098;-80
2023/10/13 04:27:44;;;;;;;13.68;7.72;;;17.40;99.90;;;;;;4973780;28;20490;-79
2023/10/13 04:30:10;;;;;;;14.50;7.65;;;17.40;99.90;;;;;;4974064;28;20031;-79
2023/10/13 04:32:46;;;;;;;16.20;8.13;;;17.40;99.90;;;;;;4969992;28;20046;-79
2023/10/13 04:40:24;;;;;;;13.80;8.77;;;17.40;99.90;;;;;;4967781;28;20098;-79
2023/10/13 04:50:51;;;;;;;19.13;9.85;;;17.50;99.90;;;;;;4962291;28;20041;-81
2023/10/13 04:53:59;;;;;;;19.75;11.43;;;17.50;99.90;;;;;;4958109;28;20122;-83
2023/10/13 04:56:53;;;;;;;16.50;9.77;;;17.50;99.90;;;;;;4953671;29;20118;-82
2023/10/13 05:02:00;;;;;;;;;;;17.50;99.90;;;;;;4955997;28;20519;-84
2023/10/13 05:04:38;;;;;;;20.35;12.02;;;17.40;99.90;;;;;;4958713;28;19906;-81
2023/10/13 05:45:40;;;;;;;17.67;12.10;;;17.80;99.90;;;;;;4977754;28;20065;-84
2023/10/13 05:48:13;;;;;;;20.00;13.38;;;17.80;99.90;;;;;;4977222;28;20034;-84
2023/10/13 06:29:19;;;;;;;12.07;6.57;;;18.00;99.90;;;;;;4976744;28;19977;-81
2023/10/13 06:31:46;;;;;;;10.68;5.43;;;18.00;99.90;;;;;;4976250;28;20055;-83
2023/10/13 06:34:15;;;;;;;12.13;7.03;;;18.00;99.90;;;;;;4975853;28;20062;-84
2023/10/13 06:36:41;;;;;;;10.60;6.35;;;18.00;99.90;;;;;;4976425;28;20514;-83
2023/10/13 06:39:34;;;;;;;10.23;5.82;;;18.00;99.90;;;;;;4978001;28;20042;-82
2023/10/13 06:42:02;;;;;;;10.27;5.45;;;18.00;99.90;;;;;;4958442;28;20030;-84
2023/10/13 06:44:32;;;;;;;10.77;5.95;;;18.10;99.90;;;;;;4976044;28;20027;-83
2023/10/13 06:46:58;;;;;;;9.95;6.70;;;18.10;99.90;;;;;;4976058;28;20089;-82
2023/10/13 06:49:24;;;;;;;8.85;5.97;;;18.10;99.90;;;;;;4975891;28;20114;-83
2023/10/13 06:51:49;;;;;;;9.77;5.68;;;18.10;99.90;;;;;;4958384;28;20188;-84
2023/10/13 06:54:21;;;;;;;10.43;5.65;;;18.10;99.90;;;;;;4976345;28;20035;-83
2023/10/13 06:56:51;;;;;;;10.98;5.82;;;18.20;99.90;;;;;;4976031;28;20038;-84
2023/10/13 06:59:17;;;;;;;8.50;5.18;;;18.20;99.90;;;;;;4980840;28;20091;-83
2023/10/13 07:01:44;;;;;;;8.68;5.72;;;18.20;99.90;;;;;;4965392;28;20046;-84
2023/10/13 07:04:13;;;;;;;11.35;6.03;;;18.20;99.90;;;;;;4983684;28;20034;-83
2023/10/13 07:06:49;;;;;;;9.45;5.40;;;18.20;99.90;;;;;;4982501;28;20042;-80
2023/10/13 07:12:01;;;;;;;9.38;5.53;;;18.20;99.90;;;;;;4979170;28;20037;-81
2023/10/13 07:14:27;;;;;;;10.85;6.20;;;18.30;99.90;;;;;;4975611;28;20095;-82
2023/10/13 07:16:59;;;;;;;10.68;6.43;;;18.30;99.90;;;;;;4975538;28;20038;-83
2023/10/13 07:19:28;;;;;;;11.68;6.38;;;18.30;99.90;;;;;;4974885;28;20034;-83
2023/10/13 07:21:58;;;;;;;11.48;6.15;;;18.30;99.90;;;;;;4957999;28;20023;-83
2023/10/13 07:24:31;;;;;;;10.50;6.00;;;18.30;99.90;;;;;;4957291;28;20088;-82
2023/10/13 07:27:04;;;;;;;11.05;6.28;;;18.30;99.90;;;;;;4974984;28;20101;-83
2023/10/13 07:29:30;;;;;;;10.95;7.00;;;18.30;99.90;;;;;;4975769;28;20043;-83
2023/10/13 07:31:56;;;;;;;11.52;6.07;;;18.30;99.90;;;;;;4975751;28;20386;-82
2023/10/13 07:34:26;;;;;;;11.15;6.10;;;18.40;99.90;;;;;;4957807;28;20455;-84
2023/10/13 07:36:53;;;;;;;11.93;6.10;;;18.40;99.90;;;;;;4957832;28;20041;-83
2023/10/13 07:39:23;;;;;;;10.50;6.07;;;18.40;99.90;;;;;;4974558;28;20057;-82
2023/10/13 07:41:54;;;;;;;11.98;5.97;;;18.40;99.90;;;;;;4975205;28;20038;-82
2023/10/13 07:44:28;;;;;;;12.43;5.88;;;18.40;99.90;;;;;;4974958;28;20030;-82
2023/10/13 07:47:02;;;;;;;13.93;6.60;;;18.40;99.90;;;;;;4957286;28;20042;-82
2023/10/13 07:49:32;;;;;;;10.50;6.03;;;18.50;99.90;;;;;;4974535;28;20035;-82
2023/10/13 07:54:49;;;;;;;11.75;6.25;;;18.50;99.90;;;;;;4974426;28;20038;-83
2023/10/13 07:57:15;;;;;;;16.02;7.20;;;18.50;99.90;;;;;;4974767;28;20054;-82
2023/10/13 07:59:50;;;;;;;11.55;6.10;;;18.50;99.90;;;;;;4974456;28;20046;-83
2023/10/13 08:02:48;;;;;;;14.85;7.70;;;18.60;99.90;;;;;;4974593;28;20042;-81
2023/10/13 08:05:04;;;;;;;15.40;6.90;;;18.60;99.90;;;;;;4974516;28;20050;-83
2023/10/13 08:07:31;;;;;;;11.73;6.15;;;18.60;99.90;;;;;;4974763;28;20607;-81
2023/10/13 08:09:59;;;;;;;13.35;6.38;;;18.60;99.90;;;;;;4974293;28;20027;-81
2023/10/13 08:12:25;;;;;;;13.52;6.45;;;18.70;99.90;;;;;;4974708;28;20479;-83
2023/10/13 08:15:09;;;;;;;18.15;6.03;;;18.70;99.90;;;;;;4974012;28;20030;-83
2023/10/13 08:17:35;;;;;;;12.35;5.43;;;18.70;99.90;;;;;;4974464;28;20035;-83
2023/10/13 08:20:11;;;;;;;14.55;5.65;;;18.70;99.90;;;;;;4957204;28;20050;-82
2023/10/13 08:22:38;;;;;;;18.63;5.93;;;18.70;99.90;;;;;;4956725;28;20039;-83
2023/10/13 08:28:45;;;;;;;17.33;6.03;;;18.80;99.90;;;;;;4922818;29;20043;-83
2023/10/13 08:30:53;;;;;;;14.05;5.85;;;18.90;99.90;;;;;;4954868;29;20039;-83
2023/10/13 08:33:24;;;;;;;11.85;5.70;;;19.00;99.90;;;;;;4954613;29;20041;-81
2023/10/13 08:36:18;;;;;;;13.80;5.50;;;19.00;99.90;;;;;;4954675;29;20035;-82
2023/10/13 08:38:50;;;;;;;11.73;4.72;;;19.10;99.90;;;;;;4954538;29;20031;-82
2023/10/13 08:43:50;;;;;;;16.00;5.53;;;19.20;99.90;;;;;;4955003;29;20098;-83
2023/10/13 08:46:29;;;;;;;13.80;5.60;;;19.30;99.90;;;;;;4954902;29;20031;-82
2023/10/13 08:49:05;;;;;;;13.70;5.60;;;19.40;99.90;;;;;;4954732;29;20032;-83
2023/10/13 08:51:43;;;;;;;19.70;6.47;;;19.40;99.90;;;;;;4954555;29;20046;-82
2023/10/13 08:54:33;;;;;;;14.85;5.53;;;19.50;99.90;;;;;;4954828;29;20114;-81
2023/10/13 08:57:29;;;;;;;13.05;4.55;;;19.50;99.90;;;;;;4949578;29;20509;-80
2023/10/13 08:59:53;;;;;;;14.10;4.70;;;19.60;99.90;;;;;;4954039;29;20035;-81
2023/10/13 09:02:59;;;;;;;18.05;5.93;;;19.60;99.90;;;;;;4954778;29;20031;-83
2023/10/13 09:05:41;;;;;;;11.55;4.90;;;19.60;99.90;;;;;;4954520;29;20054;-82
2023/10/13 09:07:57;;;;;;;10.85;4.68;;;19.60;99.90;;;;;;4954301;29;20035;-83
2023/10/13 09:10:44;;;;;;;8.13;3.90;;;19.70;99.90;;;;;;4937326;29;20031;-81
2023/10/13 09:13:18;;;;;;;13.25;5.45;;;19.80;99.90;;;;;;4954215;29;20063;-83
2023/10/13 09:15:59;;;;;;;18.92;5.80;;;19.90;99.90;;;;;;4937335;29;20027;-83
2023/10/13 09:21:29;;;;;;;17.23;4.93;;;20.00;99.90;;;;;;4954899;29;20038;-82
2023/10/13 09:24:16;;;;;;;14.63;4.60;;;20.10;99.90;;;;;;4954348;29;20043;-81
2023/10/13 09:26:41;;;;;;;11.60;4.80;;;20.20;99.90;;;;;;4965070;28;20509;-83
2023/10/13 09:29:18;;;;;;;8.90;4.20;;;20.20;99.90;;;;;;4956189;28;20497;-83
2023/10/13 09:31:47;;;;;;;13.13;4.55;;;20.20;99.90;;;;;;4973853;28;20034;-81
2023/10/13 09:34:20;;;;;;;10.40;4.28;;;20.30;99.90;;;;;;4973708;28;20039;-82
2023/10/13 09:36:47;;;;;;;10.80;4.40;;;20.20;99.90;;;;;;4956192;28;20039;-81
2023/10/13 09:39:29;;;;;;;11.23;4.75;;;20.20;99.90;;;;;;4973735;28;20023;-83
2023/10/13 09:41:57;;;;;;;13.30;5.43;;;20.20;99.90;;;;;;4956337;28;20128;-83
2023/10/13 09:44:23;;;;;;;15.75;5.95;;;20.20;99.90;;;;;;4973691;28;20039;-82
2023/10/13 09:46:49;;;;;;;14.88;5.53;;;20.20;99.90;;;;;;4956162;28;20034;-82
2023/10/13 09:49:44;;;;;;;11.82;5.35;;;20.30;99.90;;;;;;4958770;28;20031;-83
2023/10/13 09:52:18;;;;;;;13.18;4.88;;;20.30;99.90;;;;;;4976780;28;20486;-82
2023/10/13 09:55:10;;;;;;;13.98;6.07;;;20.30;99.90;;;;;;4977252;28;20554;-82
2023/10/13 09:57:44;;;;;;;13.10;4.72;;;20.40;99.90;;;;;;4976464;28;20122;-83
2023/10/13 10:02:58;;;;;;;16.75;5.28;;;20.50;99.80;;;;;;4976919;28;20093;-84
2023/10/13 10:05:26;;;;;;;12.55;5.15;;;20.50;99.60;;;;;;4976622;28;20367;-83
2023/10/13 10:07:59;;;;;;;14.77;4.93;;;20.50;99.10;;;;;;4976689;28;20058;-83
2023/10/13 10:10:52;;;;;;;14.85;4.85;;;20.60;98.40;;;;;;4976159;28;20034;-83
2023/10/13 10:13:47;;;;;;;14.15;4.95;;;20.60;98.20;;;;;;4958941;28;20030;-83
2023/10/13 10:16:20;;;;;;;14.07;4.20;;;20.70;98.40;;;;;;4943922;28;20065;-82
2023/10/13 10:18:45;;;;;;;14.25;4.75;;;20.70;97.80;;;;;;4976289;28;20479;-82
2023/10/13 10:21:15;;;;;;;13.15;5.88;;;20.80;97.60;;;;;;4958810;28;20035;-81
2023/10/13 10:23:44;;;;;;;10.60;3.85;;;20.80;97.20;;;;;;4976944;28;20043;-82
2023/10/13 10:26:15;;;;;;;14.88;4.80;;;20.80;97.10;;;;;;4976458;28;20045;-81
2023/10/13 10:28:42;;;;;;;14.40;5.07;;;20.90;96.40;;;;;;4976522;28;20166;-82
2023/10/13 10:31:12;;;;;;;16.52;6.10;;;20.80;96.30;;;;;;4976375;28;20039;-81
2023/10/13 10:33:38;;;;;;;10.65;4.57;;;20.80;95.80;;;;;;4958544;28;20042;-82
2023/10/13 10:36:05;;;;;;;11.70;4.80;;;20.80;96.10;;;;;;4976154;28;20114;-82
2023/10/13 10:38:34;;;;;;;14.43;5.18;;;20.80;95.80;;;;;;4958727;28;20182;-82
2023/10/13 10:41:06;;;;;;;11.45;5.20;;;20.80;95.80;;;;;;4958710;28;20397;-84
2023/10/13 10:43:45;;;;;;;13.40;5.15;;;20.80;95.70;;;;;;4958476;28;20058;-82
2023/10/13 10:46:25;;;;;;;16.52;6.10;;;20.90;95.50;;;;;;4976026;28;20031;-80
2023/10/13 10:49:00;;;;;;;12.85;5.25;;;20.90;95.10;;;;;;4975666;28;20422;-83
2023/10/13 10:51:31;;;;;;;12.45;5.00;;;21.00;95.20;;;;;;4958604;28;20037;-81
2023/10/13 10:53:58;;;;;;;11.95;4.75;;;21.00;95.00;;;;;;4975925;28;20035;-82
2023/10/13 10:56:37;;;;;;;15.20;5.00;;;21.00;94.80;;;;;;4975656;28;20031;-81
2023/10/13 10:59:08;;;;;;;18.60;5.82;;;21.10;94.90;;;;;;4975400;28;20086;-82
2023/10/13 11:01:52;;;;;;;12.80;5.30;;;21.10;94.70;;;;;;4975584;28;20030;-83
2023/10/13 11:04:24;;;;;;;15.57;5.00;;;21.10;95.00;;;;;;4975702;28;20039;-83
2023/10/13 11:06:55;;;;;;;12.57;4.80;;;21.20;94.80;;;;;;4975546;28;20026;-80
2023/10/13 11:11:53;;;;;;;12.27;4.75;;;21.40;94.70;;;;;;4975606;28;20098;-83
2023/10/13 11:14:24;;;;;;;14.15;4.82;;;21.50;94.60;;;;;;4975248;28;20119;-81
2023/10/13 11:16:53;;;;;;;15.55;5.25;;;21.60;94.20;;;;;;4975294;28;20487;-82
2023/10/13 11:19:25;;;;;;;14.10;4.43;;;21.60;93.60;;;;;;4975313;28;20089;-82
2023/10/13 11:21:53;;;;;;;17.65;5.78;;;21.60;93.20;;;;;;4957770;28;20038;-81
2023/10/13 11:24:21;;;;;;;14.23;5.57;;;21.60;92.80;;;;;;4975312;28;20034;-82
2023/10/13 11:26:52;;;;;;;14.65;4.72;;;21.60;92.30;;;;;;4957597;28;20097;-82
2023/10/13 11:29:19;;;;;;;15.98;5.18;;;21.60;92.20;;;;;;4957684;28;20435;-82
2023/10/13 11:31:58;;;;;;;18.10;5.82;;;21.60;91.40;;;;;;4974594;28;20034;-84
2023/10/13 11:34:24;;;;;;;18.15;6.05;;;21.60;90.90;;;;;;4974884;28;20041;-81
2023/10/13 11:36:50;;;;;;;16.98;5.43;;;21.60;89.30;;;;;;4975052;28;20109;-82
2023/10/13 11:39:24;;;;;;;11.77;5.10;;;21.60;89.00;;;;;;4975001;28;20496;-80
2023/10/13 11:41:53;;;;;;;16.48;5.32;;;21.70;88.60;;;;;;4975478;28;20034;-82
2023/10/13 11:51:47;;;;;;;13.88;5.47;;;21.70;86.20;;;;;;4980537;28;20034;-80
2023/10/13 11:54:17;;;;;;;15.95;5.32;;;21.80;86.70;;;;;;4960745;28;20037;-82
2023/10/13 11:56:43;;;;;;;15.82;5.35;;;21.80;86.90;;;;;;4957335;28;20094;-83
2023/10/13 11:59:18;;;;;;;17.63;5.53;;;21.90;86.70;;;;;;4974584;28;20112;-80
2023/10/13 12:04:41;;;;;;;19.67;6.28;;;21.90;86.20;;;;;;4974293;28;20485;-81
2023/10/13 12:07:19;;;;;;;14.38;5.18;;;21.90;86.10;;;;;;4956998;28;20406;-83
2023/10/13 12:12:26;;;;;;;15.25;5.35;;;22.10;86.40;;;;;;4973711;28;20118;-84
2023/10/13 12:14:54;;;;;;;13.23;5.30;;;22.20;86.20;;;;;;4973815;28;20505;-82
2023/10/13 12:17:36;;;;;;;15.73;5.53;;;22.30;85.90;;;;;;4974562;28;20114;-83
2023/10/13 12:20:10;;;;;;;15.77;5.40;;;22.40;85.10;;;;;;4974201;28;20039;-83
2023/10/13 12:22:42;;;;;;;14.35;5.55;;;22.40;85.10;;;;;;4974347;28;20505;-81
2023/10/13 12:27:57;;;;;;;18.83;5.53;;;22.50;84.30;;;;;;4973886;28;20046;-80
2023/10/13 12:30:36;;;;;;;14.73;4.97;;;22.50;84.10;;;;;;4973992;28;20042;-82
2023/10/13 12:33:09;;;;;;;12.85;5.40;;;22.50;83.70;;;;;;4974299;28;20090;-82
2023/10/13 12:35:44;;;;;;;13.48;5.78;;;22.50;83.50;;;;;;4974086;28;20045;-82
2023/10/13 12:38:36;;;;;;;17.27;5.95;;;22.50;83.40;;;;;;4974124;28;20035;-82
2023/10/13 12:52:01;;;;;;;;;;;22.50;83.20;;;;;;4974187;28;20418;-81
2023/10/13 12:54:35;;;;;;;17.90;5.97;;;22.50;82.90;;;;;;4958574;28;19911;-82
2023/10/13 12:57:01;;;;;;;18.83;6.53;;;22.40;83.30;;;;;;4954187;29;20498;-81
2023/10/13 12:59:26;;;;;;;13.75;5.40;;;22.40;83.10;;;;;;4953891;29;20182;-81
2023/10/13 13:01:53;;;;;;;14.25;4.97;;;22.40;82.90;;;;;;4937386;29;20488;-82
2023/10/13 13:04:22;;;;;;;15.00;5.70;;;22.40;83.10;;;;;;4954738;29;20114;-82
2023/10/13 13:06:49;;;;;;;18.83;5.30;;;22.40;82.90;;;;;;4955104;29;20042;-82
2023/10/13 13:09:15;;;;;;;16.60;6.25;;;22.40;82.70;;;;;;4954600;29;20480;-83
2023/10/13 13:11:41;;;;;;;14.90;5.20;;;22.40;82.10;;;;;;4954692;29;20403;-79
2023/10/13 13:14:07;;;;;;;11.95;4.68;;;22.40;82.20;;;;;;4953959;29;20059;-82
2023/10/13 13:16:34;;;;;;;18.65;6.15;;;22.40;83.10;;;;;;4954732;29;20085;-83
2023/10/13 13:19:03;;;;;;;15.50;4.90;;;22.40;82.40;;;;;;4954152;29;20095;-83
2023/10/13 13:21:29;;;;;;;13.23;4.63;;;22.40;82.60;;;;;;4954470;29;20031;-82
2023/10/13 13:23:55;;;;;;;11.52;4.55;;;22.40;82.70;;;;;;4939788;29;20050;-83
2023/10/13 13:26:21;;;;;;;15.55;5.80;;;22.50;82.80;;;;;;4958115;29;20032;-83
2023/10/13 13:28:51;;;;;;;17.85;5.43;;;22.40;82.20;;;;;;4940663;29;20118;-83
2023/10/13 13:31:25;;;;;;;13.90;4.60;;;22.40;82.60;;;;;;4958004;29;20046;-80
2023/10/13 13:33:52;;;;;;;15.70;4.47;;;22.40;82.30;;;;;;4958250;29;20364;-83
2023/10/13 13:36:19;;;;;;;18.55;5.97;;;22.40;82.60;;;;;;4958161;29;20039;-81
2023/10/13 13:38:54;;;;;;;12.18;4.55;;;22.40;82.60;;;;;;4957800;29;20043;-83
2023/10/13 13:41:20;;;;;;;15.23;4.63;;;22.40;82.60;;;;;;4957697;29;20031;-83
2023/10/13 13:43:54;;;;;;;17.58;5.82;;;22.40;82.80;;;;;;4940627;29;20036;-82
2023/10/13 13:46:24;;;;;;;;;;;22.30;82.70;;;;;;4941218;29;20051;-83
2023/10/13 13:48:51;;;;;;;15.40;5.13;;;22.30;83.40;;;;;;4956688;29;19945;-83
2023/10/13 13:51:26;;;;;;;14.25;5.03;;;22.30;83.40;;;;;;4957773;29;20449;-83
2023/10/13 13:53:52;;;;;;;18.45;5.20;;;22.20;83.60;;;;;;4956637;29;20452;-79
2023/10/13 13:56:19;;;;;;;14.95;5.32;;;22.20;83.70;;;;;;4957568;29;20094;-81
2023/10/13 13:58:51;;;;;;;13.57;4.95;;;22.20;84.10;;;;;;4958032;29;20114;-82
2023/10/13 14:01:28;;;;;;;13.85;5.13;;;22.10;84.50;;;;;;4957589;29;20051;-83
2023/10/13 14:04:02;;;;;;;9.65;4.10;;;22.10;84.20;;;;;;4941047;29;20504;-82
2023/10/13 14:06:28;;;;;;;;;;;22.10;84.60;;;;;;4958105;29;20134;-83
2023/10/13 14:08:56;;;;;;;15.25;4.80;;;22.10;84.70;;;;;;4957844;29;20351;-80
2023/10/13 14:14:13;;;;;;;18.45;5.15;;;22.00;84.50;;;;;;4957379;29;20054;-82
2023/10/13 14:16:47;;;;;;;12.27;4.82;;;21.90;84.50;;;;;;4957383;29;20035;-84
2023/10/13 14:19:29;;;;;;;17.80;4.65;;;21.90;85.00;;;;;;4957344;29;20027;-83
2023/10/13 14:21:55;;;;;;;11.52;3.97;;;21.90;85.10;;;;;;4957453;29;20403;-84
2023/10/13 14:24:28;;;;;;;19.10;4.43;;;21.90;85.90;;;;;;4939731;29;20039;-82
2023/10/13 14:27:07;;;;;;;15.93;4.15;;;21.80;85.40;;;;;;4957043;29;20043;-84
2023/10/13 14:29:45;;;;;;;12.80;4.18;;;21.80;85.80;;;;;;4939883;29;20035;-85
2023/10/13 14:32:14;;;;;;;14.77;5.10;;;21.80;86.00;;;;;;4939869;29;20035;-84
2023/10/13 14:34:54;;;;;;;11.77;4.38;;;21.70;86.20;;;;;;4956377;28;20035;-84
2023/10/13 14:37:41;;;;;;;15.13;5.10;;;21.70;86.50;;;;;;4941703;28;20094;-84
2023/10/13 14:40:12;;;;;;;14.75;4.80;;;21.70;86.50;;;;;;4970926;28;20035;-85
2023/10/13 14:42:40;;;;;;;14.32;4.30;;;21.70;86.50;;;;;;4970104;28;20432;-83
2023/10/13 14:45:12;;;;;;;15.25;5.03;;;21.60;86.70;;;;;;4959050;28;20093;-83
2023/10/13 14:47:45;;;;;;;12.65;4.90;;;21.60;87.00;;;;;;4959018;28;20035;-85
2023/10/13 14:50:19;;;;;;;16.08;4.90;;;21.50;87.30;;;;;;4976122;28;20122;-84
2023/10/13 14:52:45;;;;;;;12.52;4.88;;;21.50;87.90;;;;;;4970004;28;20487;-84
2023/10/13 14:55:18;;;;;;;18.33;4.65;;;21.40;88.40;;;;;;4956460;29;20046;-83
2023/10/13 14:57:46;;;;;;;19.08;4.57;;;21.40;88.40;;;;;;4965320;28;20575;-84
2023/10/13 15:00:14;;;;;;;15.25;4.78;;;21.30;88.60;;;;;;4972195;28;20046;-82
2023/10/13 15:02:42;;;;;;;16.85;4.93;;;21.30;88.50;;;;;;4952229;28;20384;-83
2023/10/13 15:05:16;;;;;;;18.33;4.57;;;21.30;88.50;;;;;;4950342;28;20487;-84
2023/10/13 15:07:45;;;;;;;12.82;5.57;;;21.30;88.80;;;;;;4958688;28;20122;-84
2023/10/13 15:10:15;;;;;;;16.45;4.32;;;21.30;89.00;;;;;;4975314;28;20034;-83
2023/10/13 15:12:48;;;;;;;18.55;5.20;;;21.20;89.10;;;;;;4975606;28;20526;-81
2023/10/13 15:15:16;;;;;;;;;;;21.20;89.50;;;;;;4976204;28;20027;-85
2023/10/13 15:17:45;;;;;;;13.43;4.95;;;21.20;89.60;;;;;;4958292;28;19906;-81
2023/10/13 15:20:17;;;;;;;14.15;5.00;;;21.10;89.70;;;;;;4958514;28;20039;-81
2023/10/13 15:22:44;;;;;;;11.10;4.80;;;21.20;89.90;;;;;;4992192;28;20069;-80
2023/10/13 15:25:28;;;;;;;16.23;5.32;;;21.10;90.00;;;;;;4994713;28;20070;-82
2023/10/13 15:28:02;;;;;;;11.00;4.47;;;21.10;90.10;;;;;;4995145;28;20073;-83
2023/10/13 15:30:42;;;;;;;17.60;5.03;;;21.10;90.30;;;;;;4976993;28;20030;-81
2023/10/13 15:33:08;;;;;;;11.45;4.72;;;21.00;90.50;;;;;;4977519;28;20121;-82
2023/10/13 15:35:34;;;;;;;13.38;5.07;;;21.00;90.80;;;;;;4994676;28;20042;-83
2023/10/13 15:38:00;;;;;;;12.05;4.97;;;20.90;91.00;;;;;;4995600;28;20093;-82
2023/10/13 15:40:27;;;;;;;14.10;5.18;;;20.80;91.20;;;;;;4995589;28;20046;-84